Airport View

Enter AWOS ICAO identifier for current METAR.

ex. KFNL

KASE 192353Z 00000KT 10SM CLR 13/M12 A3013 RMK AO2 SLP134 T01281117 10194 20122 51000

20 Oct 2020 00:17

Frequency: 120.400

Phone: 970-925-9168

Other Area AWOS: KEGE - KLXV - K5SM - KCCU

TAF KASE 192337Z 2000/2024 36005KT P6SM SKC FM200300 21008KT P6SM SCT200 FM201900 31010G19KT P6SM FEW250